Time;durP1;ratioP1;P1;durP2;ratioP2;P2;SDS_P1;SDS_P2;PMS_P1;PMS_P2;Temp;Humidity;BMP_temperature;BMP_pressure;BME280_temperature;BME280_humidity;BME280_pressure;Samples;Min_cycle;Max_cycle;Signal;HPM_P1;HPM_P2
2022/04/03 00:00:37;;;;;;;6.30;5.38;;;;;;;;;;5010369;28;99997;-75
2022/04/03 00:03:04;;;;;;;6.70;4.97;;;;;;;;;;5012408;28;100395;-75
2022/04/03 00:05:35;;;;;;;8.68;5.63;;;;;;;;;;5007184;28;99759;-74
2022/04/03 00:08:01;;;;;;;9.13;5.20;;;;;;;;;;5008525;28;100384;-75
2022/04/03 00:10:27;;;;;;;9.75;4.90;;;;;;;;;;5011114;28;98565;-75
2022/04/03 00:12:54;;;;;;;10.40;5.65;;;;;;;;;;5025787;28;99935;-75
2022/04/03 00:15:20;;;;;;;10.27;6.35;;;;;;;;;;5007959;28;100369;-75
2022/04/03 00:17:46;;;;;;;7.57;5.63;;;;;;;;;;5009064;28;99129;-74
2022/04/03 00:20:13;;;;;;;13.77;5.95;;;;;;;;;;5008591;28;100043;-75
2022/04/03 00:22:39;;;;;;;9.40;5.82;;;;;;;;;;5012170;28;100419;-75
2022/04/03 00:25:06;;;;;;;7.97;5.10;;;;;;;;;;5009189;28;100162;-75
2022/04/03 00:27:33;;;;;;;5.43;4.65;;;;;;;;;;5008699;28;100276;-75
2022/04/03 00:29:59;;;;;;;8.23;5.05;;;;;;;;;;5008893;28;98672;-75
2022/04/03 00:32:26;;;;;;;7.07;5.32;;;;;;;;;;5008878;28;98911;-75
2022/04/03 00:34:52;;;;;;;17.75;5.57;;;;;;;;;;5008461;28;100314;-75
2022/04/03 00:37:19;;;;;;;8.68;4.80;;;;;;;;;;5009956;28;97834;-75
2022/04/03 00:39:45;;;;;;;8.85;5.30;;;;;;;;;;5008170;28;99331;-75
2022/04/03 00:42:11;;;;;;;5.47;4.90;;;;;;;;;;5008024;28;100387;-75
2022/04/03 00:44:38;;;;;;;7.25;5.35;;;;;;;;;;5011398;28;99334;-75
2022/04/03 00:47:04;;;;;;;8.63;6.03;;;;;;;;;;5008197;28;99526;-75
2022/04/03 00:49:31;;;;;;;9.57;5.38;;;;;;;;;;5007407;28;98573;-75
2022/04/03 00:51:58;;;;;;;9.27;5.47;;;;;;;;;;5009209;28;99033;-76
2022/04/03 00:54:24;;;;;;;5.72;5.00;;;;;;;;;;5007479;28;100109;-75
2022/04/03 00:56:51;;;;;;;10.90;5.40;;;;;;;;;;5008422;28;98591;-75
2022/04/03 00:59:17;;;;;;;5.88;5.28;;;;;;;;;;5008953;28;102220;-75
2022/04/03 01:01:44;;;;;;;5.35;4.63;;;;;;;;;;5007708;28;99936;-75
2022/04/03 01:04:11;;;;;;;12.85;5.60;;;;;;;;;;5007873;28;98612;-75
2022/04/03 01:06:38;;;;;;;5.80;4.38;;;;;;;;;;5011255;28;100243;-75
2022/04/03 01:09:04;;;;;;;8.82;4.60;;;;;;;;;;5007311;28;99288;-75
2022/04/03 01:11:31;;;;;;;7.82;5.07;;;;;;;;;;5016117;28;100721;-75
2022/04/03 01:13:58;;;;;;;5.38;4.88;;;;;;;;;;5008092;28;100247;-75
2022/04/03 01:16:25;;;;;;;4.95;4.60;;;;;;;;;;5007453;28;99039;-75
2022/04/03 01:18:52;;;;;;;5.32;4.22;;;;;;;;;;5008985;28;99906;-75
2022/04/03 01:21:18;;;;;;;5.15;4.75;;;;;;;;;;5006000;28;100120;-75
2022/04/03 01:23:45;;;;;;;8.02;4.65;;;;;;;;;;5007842;28;98673;-75
2022/04/03 01:26:11;;;;;;;5.47;4.43;;;;;;;;;;5008191;28;100116;-75
2022/04/03 01:28:39;;;;;;;4.53;4.22;;;;;;;;;;5010983;28;99982;-75
2022/04/03 01:31:05;;;;;;;7.95;5.20;;;;;;;;;;5008957;28;100030;-75
2022/04/03 01:33:32;;;;;;;7.70;5.03;;;;;;;;;;5005002;28;100802;-75
2022/04/03 01:35:58;;;;;;;9.38;6.15;;;;;;;;;;5008292;28;98756;-75
2022/04/03 01:38:25;;;;;;;12.50;6.70;;;;;;;;;;5008124;28;99725;-75
2022/04/03 01:40:51;;;;;;;12.55;6.82;;;;;;;;;;5007522;28;100309;-75
2022/04/03 01:43:17;;;;;;;12.23;6.82;;;;;;;;;;5007681;28;98995;-75
2022/04/03 01:45:44;;;;;;;18.48;7.22;;;;;;;;;;5008043;28;99861;-75
2022/04/03 01:48:10;;;;;;;6.40;5.78;;;;;;;;;;5007365;28;100245;-74
2022/04/03 01:50:37;;;;;;;11.00;7.28;;;;;;;;;;5011420;28;97887;-74
2022/04/03 01:53:04;;;;;;;11.40;7.90;;;;;;;;;;5007127;28;100253;-75
2022/04/03 01:55:30;;;;;;;12.85;7.97;;;;;;;;;;5008392;28;98556;-75
2022/04/03 01:57:56;;;;;;;13.52;9.00;;;;;;;;;;5006672;28;100998;-75
2022/04/03 02:00:23;;;;;;;18.90;9.68;;;;;;;;;;5006932;28;100888;-75
2022/04/03 02:02:50;;;;;;;15.15;10.65;;;;;;;;;;5008451;28;98575;-75
2022/04/03 02:05:17;;;;;;;20.05;11.13;;;;;;;;;;5005530;28;100219;-74
2022/04/03 02:07:44;;;;;;;16.35;11.07;;;;;;;;;;5006916;28;100374;-75
2022/04/03 02:10:12;;;;;;;14.95;10.48;;;;;;;;;;5006655;28;98617;-75
2022/04/03 02:12:39;;;;;;;19.73;11.75;;;;;;;;;;5009726;28;100176;-74
2022/04/03 02:15:10;;;;;;;22.52;11.90;;;;;;;;;;5007825;28;97826;-75
2022/04/03 02:17:38;;;;;;;19.55;12.50;;;;;;;;;;5005698;28;100735;-75
2022/04/03 02:20:04;;;;;;;20.85;11.77;;;;;;;;;;5007432;28;100346;-74
2022/04/03 02:22:30;;;;;;;15.38;11.27;;;;;;;;;;5003937;28;100561;-74
2022/04/03 02:24:57;;;;;;;19.73;13.30;;;;;;;;;;5006570;28;100674;-75
2022/04/03 02:27:24;;;;;;;19.00;13.23;;;;;;;;;;5005908;28;99770;-75
2022/04/03 02:29:50;;;;;;;26.80;13.73;;;;;;;;;;5009786;28;98716;-74
2022/04/03 02:32:17;;;;;;;22.98;13.95;;;;;;;;;;5012083;28;99271;-75
2022/04/03 02:34:43;;;;;;;18.60;14.07;;;;;;;;;;5011125;28;99042;-75
2022/04/03 02:37:11;;;;;;;22.65;14.57;;;;;;;;;;5009782;28;100011;-75
2022/04/03 02:39:37;;;;;;;23.77;14.98;;;;;;;;;;5010167;28;99681;-75
2022/04/03 02:42:04;;;;;;;21.92;14.23;;;;;;;;;;5009943;28;98539;-75
2022/04/03 02:44:31;;;;;;;25.33;14.38;;;;;;;;;;5009515;28;99934;-75
2022/04/03 02:46:57;;;;;;;27.92;14.43;;;;;;;;;;5008893;28;101461;-76
2022/04/03 02:49:23;;;;;;;24.70;13.50;;;;;;;;;;5009483;28;98586;-75
2022/04/03 02:51:50;;;;;;;18.92;12.73;;;;;;;;;;5009847;28;99953;-75
2022/04/03 02:54:16;;;;;;;22.52;12.80;;;;;;;;;;5011931;28;100151;-76
2022/04/03 02:56:43;;;;;;;22.67;11.25;;;;;;;;;;5010667;28;99836;-75
2022/04/03 02:59:09;;;;;;;17.20;10.45;;;;;;;;;;5008903;28;100207;-76
2022/04/03 03:01:36;;;;;;;17.38;9.93;;;;;;;;;;5008926;28;100854;-76
2022/04/03 03:04:02;;;;;;;18.33;9.68;;;;;;;;;;5011773;28;100581;-76
2022/04/03 03:06:29;;;;;;;13.70;8.38;;;;;;;;;;5009686;28;100318;-76
2022/04/03 03:08:55;;;;;;;11.38;8.13;;;;;;;;;;5008215;28;98602;-75
2022/04/03 03:11:22;;;;;;;15.75;9.18;;;;;;;;;;5009552;28;99683;-76
2022/04/03 03:13:48;;;;;;;11.52;8.65;;;;;;;;;;5008650;28;99629;-75
2022/04/03 03:16:15;;;;;;;12.82;8.98;;;;;;;;;;5014221;28;98872;-76
2022/04/03 03:18:42;;;;;;;14.93;8.15;;;;;;;;;;5009859;28;100152;-76
2022/04/03 03:21:08;;;;;;;11.85;8.38;;;;;;;;;;5009274;28;98564;-75
2022/04/03 03:23:35;;;;;;;13.73;9.57;;;;;;;;;;5009542;28;100046;-75
2022/04/03 03:26:02;;;;;;;9.13;7.95;;;;;;;;;;5010102;28;101305;-75
2022/04/03 03:28:29;;;;;;;7.53;6.15;;;;;;;;;;5011125;28;97868;-75
2022/04/03 03:30:56;;;;;;;9.10;6.18;;;;;;;;;;5021852;28;99441;-75
2022/04/03 03:33:22;;;;;;;7.43;5.60;;;;;;;;;;5009079;28;102519;-75
2022/04/03 03:35:49;;;;;;;4.88;4.55;;;;;;;;;;5009433;28;99829;-75
2022/04/03 03:38:15;;;;;;;10.18;5.68;;;;;;;;;;5012496;28;100718;-75
2022/04/03 03:40:42;;;;;;;6.78;5.10;;;;;;;;;;5009368;28;98549;-75
2022/04/03 03:43:09;;;;;;;6.97;4.82;;;;;;;;;;5009247;28;100099;-75
2022/04/03 03:45:36;;;;;;;4.35;3.92;;;;;;;;;;5009981;28;100279;-75
2022/04/03 03:48:03;;;;;;;4.47;4.15;;;;;;;;;;5009642;28;98569;-75
2022/04/03 03:50:29;;;;;;;8.30;4.25;;;;;;;;;;5009593;28;100008;-75
2022/04/03 03:52:56;;;;;;;5.72;3.70;;;;;;;;;;5009654;28;99561;-75
2022/04/03 03:55:23;;;;;;;3.95;3.65;;;;;;;;;;5010106;28;99095;-74
2022/04/03 03:57:49;;;;;;;3.78;3.47;;;;;;;;;;5008790;28;98881;-74
2022/04/03 04:00:16;;;;;;;6.28;3.92;;;;;;;;;;5012402;28;101119;-75
2022/04/03 04:02:42;;;;;;;5.25;3.70;;;;;;;;;;5008708;28;100923;-74
2022/04/03 04:05:09;;;;;;;5.53;4.00;;;;;;;;;;5008819;28;100384;-74
2022/04/03 04:07:39;;;;;;;3.85;3.50;;;;;;;;;;5009123;28;98689;-74
2022/04/03 04:10:06;;;;;;;6.53;2.92;;;;;;;;;;5009362;28;99287;-73
2022/04/03 04:12:33;;;;;;;6.05;3.72;;;;;;;;;;5006830;28;100327;-74
2022/04/03 04:15:00;;;;;;;6.80;3.40;;;;;;;;;;5009883;28;98792;-74
2022/04/03 04:17:26;;;;;;;4.22;3.50;;;;;;;;;;5008318;28;99059;-74
2022/04/03 04:19:53;;;;;;;3.13;2.90;;;;;;;;;;5009260;28;100309;-74
2022/04/03 04:22:19;;;;;;;5.90;3.13;;;;;;;;;;5012010;28;99181;-74
2022/04/03 04:24:45;;;;;;;7.82;3.58;;;;;;;;;;5006961;28;100952;-74
2022/04/03 04:27:12;;;;;;;7.47;3.08;;;;;;;;;;5009077;28;98971;-74
2022/04/03 04:29:38;;;;;;;5.68;3.30;;;;;;;;;;5010108;28;100206;-74
2022/04/03 04:32:05;;;;;;;7.82;2.60;;;;;;;;;;5007229;28;100325;-74
2022/04/03 04:34:32;;;;;;;4.55;3.00;;;;;;;;;;5009296;28;98684;-74
2022/04/03 04:36:58;;;;;;;6.05;3.05;;;;;;;;;;5008797;28;99817;-74
2022/04/03 04:39:25;;;;;;;3.33;3.10;;;;;;;;;;5008234;28;100867;-74
2022/04/03 04:41:51;;;;;;;4.80;3.50;;;;;;;;;;5011651;28;97952;-74
2022/04/03 04:44:17;;;;;;;4.35;3.40;;;;;;;;;;5008852;28;100253;-74
2022/04/03 04:46:44;;;;;;;3.13;2.92;;;;;;;;;;5007684;28;99388;-75
2022/04/03 04:49:10;;;;;;;3.67;3.45;;;;;;;;;;5008789;28;99931;-75
2022/04/03 04:51:36;;;;;;;3.97;3.33;;;;;;;;;;5006782;28;100279;-75
2022/04/03 04:54:03;;;;;;;3.88;3.58;;;;;;;;;;5005849;28;99248;-74
2022/04/03 04:56:30;;;;;;;3.58;3.38;;;;;;;;;;5008058;28;99995;-75
2022/04/03 04:58:56;;;;;;;4.38;3.97;;;;;;;;;;5008730;28;100524;-75
2022/04/03 05:01:22;;;;;;;5.15;4.35;;;;;;;;;;5005672;28;100041;-75
2022/04/03 05:03:49;;;;;;;8.32;4.50;;;;;;;;;;5011985;28;99876;-75
2022/04/03 05:06:16;;;;;;;4.95;4.45;;;;;;;;;;5007555;28;98254;-75
2022/04/03 05:08:43;;;;;;;4.85;4.50;;;;;;;;;;5008461;28;99332;-75
2022/04/03 05:11:11;;;;;;;5.93;5.32;;;;;;;;;;5006949;28;99669;-75
2022/04/03 05:13:37;;;;;;;5.60;5.07;;;;;;;;;;5007791;28;99342;-75
2022/04/03 05:16:04;;;;;;;6.45;5.78;;;;;;;;;;5007514;28;100724;-75
2022/04/03 05:18:37;;;;;;;6.82;6.22;;;;;;;;;;5008798;28;100414;-75
2022/04/03 05:21:04;;;;;;;9.05;6.97;;;;;;;;;;5005750;28;100202;-74
2022/04/03 05:23:31;;;;;;;11.95;6.53;;;;;;;;;;5008856;28;99274;-75
2022/04/03 05:25:57;;;;;;;7.70;6.57;;;;;;;;;;5010732;28;100227;-75
2022/04/03 05:28:24;;;;;;;7.38;6.68;;;;;;;;;;5007431;28;100303;-75
2022/04/03 05:30:50;;;;;;;7.80;6.97;;;;;;;;;;5008430;28;99596;-74
2022/04/03 05:33:17;;;;;;;7.78;7.03;;;;;;;;;;5008705;28;98703;-73
2022/04/03 05:35:43;;;;;;;8.68;7.15;;;;;;;;;;5008165;28;100252;-74
2022/04/03 05:38:09;;;;;;;10.98;7.28;;;;;;;;;;5006660;28;101118;-73
2022/04/03 05:40:36;;;;;;;7.55;6.78;;;;;;;;;;5007959;28;98654;-73
2022/04/03 05:43:02;;;;;;;8.13;7.22;;;;;;;;;;5007194;28;99957;-73
2022/04/03 05:45:28;;;;;;;8.02;7.32;;;;;;;;;;5007189;28;100107;-73
2022/04/03 05:47:55;;;;;;;8.18;7.35;;;;;;;;;;5012332;28;98926;-73
2022/04/03 05:50:21;;;;;;;8.23;7.57;;;;;;;;;;5006289;28;100550;-74
2022/04/03 05:52:49;;;;;;;9.80;8.88;;;;;;;;;;5007562;28;98567;-74
2022/04/03 05:55:16;;;;;;;9.68;8.77;;;;;;;;;;5008741;28;100162;-74
2022/04/03 05:57:43;;;;;;;9.75;8.75;;;;;;;;;;5007417;28;100463;-74
2022/04/03 06:00:12;;;;;;;12.23;9.70;;;;;;;;;;5007397;28;98565;-74
2022/04/03 06:02:41;;;;;;;10.48;9.48;;;;;;;;;;5006583;28;99917;-74
2022/04/03 06:05:08;;;;;;;12.32;11.00;;;;;;;;;;5010946;28;100362;-74
2022/04/03 06:07:34;;;;;;;12.15;10.68;;;;;;;;;;5010427;28;98513;-74
2022/04/03 06:10:01;;;;;;;11.95;10.85;;;;;;;;;;5012541;28;100212;-74
2022/04/03 06:12:27;;;;;;;12.25;10.98;;;;;;;;;;5009855;28;98616;-74
2022/04/03 06:14:53;;;;;;;12.15;10.95;;;;;;;;;;5011122;28;100437;-74
2022/04/03 06:17:20;;;;;;;14.20;12.00;;;;;;;;;;5008778;28;100519;-74
2022/04/03 06:19:46;;;;;;;13.00;11.63;;;;;;;;;;5011370;28;97797;-74
2022/04/03 06:22:12;;;;;;;13.75;12.07;;;;;;;;;;5010009;28;98519;-74
2022/04/03 06:24:39;;;;;;;14.10;11.27;;;;;;;;;;5010147;28;100244;-74
2022/04/03 06:27:05;;;;;;;18.60;12.30;;;;;;;;;;5009262;28;99265;-74
2022/04/03 06:29:31;;;;;;;13.40;11.88;;;;;;;;;;5013395;28;100760;-74
2022/04/03 06:31:58;;;;;;;12.23;11.02;;;;;;;;;;5009136;28;98677;-74
2022/04/03 06:34:25;;;;;;;11.98;10.88;;;;;;;;;;5009680;28;100021;-74
2022/04/03 06:36:52;;;;;;;12.05;10.85;;;;;;;;;;5007875;28;99644;-74
2022/04/03 06:39:19;;;;;;;12.20;10.50;;;;;;;;;;5021638;28;98518;-74
2022/04/03 06:41:45;;;;;;;11.60;9.68;;;;;;;;;;5008692;28;100171;-74
2022/04/03 06:44:12;;;;;;;10.77;9.77;;;;;;;;;;5011598;28;99764;-74
2022/04/03 06:46:38;;;;;;;9.52;8.63;;;;;;;;;;5009746;28;99845;-74
2022/04/03 06:49:04;;;;;;;9.95;8.45;;;;;;;;;;5010562;28;100013;-74
2022/04/03 06:51:31;;;;;;;11.45;8.85;;;;;;;;;;5013428;28;101035;-74
2022/04/03 06:53:57;;;;;;;10.38;8.13;;;;;;;;;;5010532;28;100725;-74
2022/04/03 06:56:24;;;;;;;9.75;8.75;;;;;;;;;;5009875;28;100128;-74
2022/04/03 06:58:50;;;;;;;10.57;7.97;;;;;;;;;;5010740;28;98943;-76
2022/04/03 07:01:16;;;;;;;7.72;7.13;;;;;;;;;;5008055;28;99159;-76
2022/04/03 07:03:43;;;;;;;10.98;6.90;;;;;;;;;;5009861;28;100054;-74
2022/04/03 07:06:09;;;;;;;8.75;7.05;;;;;;;;;;5006994;28;98656;-75
2022/04/03 07:08:36;;;;;;;10.60;6.10;;;;;;;;;;5011184;28;99976;-75
2022/04/03 07:11:03;;;;;;;5.68;5.10;;;;;;;;;;5010591;28;100388;-76
2022/04/03 07:13:29;;;;;;;10.05;5.53;;;;;;;;;;5012694;28;98639;-75
2022/04/03 07:15:56;;;;;;;5.07;4.78;;;;;;;;;;5009631;28;100956;-75
2022/04/03 07:18:22;;;;;;;10.82;5.55;;;;;;;;;;5010409;28;98681;-75
2022/04/03 07:20:49;;;;;;;5.75;5.22;;;;;;;;;;5010381;28;100131;-75
2022/04/03 07:23:15;;;;;;;9.95;5.22;;;;;;;;;;5010155;28;100238;-75
2022/04/03 07:25:42;;;;;;;5.60;5.05;;;;;;;;;;5010888;28;98626;-76
2022/04/03 07:28:08;;;;;;;5.22;4.82;;;;;;;;;;5009978;28;99976;-75
2022/04/03 07:30:34;;;;;;;5.55;5.15;;;;;;;;;;5006945;28;100951;-76
2022/04/03 07:33:01;;;;;;;7.10;4.88;;;;;;;;;;5003407;28;98654;-76
2022/04/03 07:35:27;;;;;;;4.57;4.15;;;;;;;;;;5009444;28;99343;-76
2022/04/03 07:37:53;;;;;;;4.53;3.88;;;;;;;;;;5016463;28;98692;-75
2022/04/03 07:40:20;;;;;;;4.40;4.00;;;;;;;;;;5010220;28;100375;-76
2022/04/03 07:43:06;;;;;;;4.03;3.60;;;;;;;;;;5009498;28;99470;-76
2022/04/03 07:45:33;;;;;;;4.07;3.70;;;;;;;;;;5010222;28;98620;-75
2022/04/03 07:47:59;;;;;;;3.42;3.22;;;;;;;;;;5009412;28;100403;-76
2022/04/03 07:50:25;;;;;;;3.85;3.55;;;;;;;;;;5005107;28;100285;-76
2022/04/03 07:52:52;;;;;;;4.00;3.55;;;;;;;;;;5004714;28;99406;-75
2022/04/03 07:55:18;;;;;;;4.85;3.47;;;;;;;;;;5002604;28;100734;-76
2022/04/03 07:57:45;;;;;;;5.10;4.10;;;;;;;;;;5008228;28;98797;-76
2022/04/03 08:00:12;;;;;;;3.20;2.90;;;;;;;;;;5006361;28;99762;-76
2022/04/03 08:02:39;;;;;;;4.57;3.55;;;;;;;;;;5004484;28;100523;-76
2022/04/03 08:05:06;;;;;;;3.13;2.90;;;;;;;;;;5002320;28;99410;-76
2022/04/03 08:07:36;;;;;;;5.50;3.08;;;;;;;;;;5003100;28;100557;-76
2022/04/03 08:10:05;;;;;;;3.45;2.72;;;;;;;;;;5001884;28;100258;-76
2022/04/03 08:12:31;;;;;;;3.03;2.83;;;;;;;;;;5004044;28;99142;-75
2022/04/03 08:14:58;;;;;;;3.28;3.08;;;;;;;;;;5004537;28;99957;-76
2022/04/03 08:17:25;;;;;;;3.90;2.05;;;;;;;;;;5003490;28;99787;-76
2022/04/03 08:19:51;;;;;;;3.20;2.92;;;;;;;;;;5008680;28;98953;-76
2022/04/03 08:22:18;;;;;;;4.60;2.83;;;;;;;;;;5003566;27;99812;-75
2022/04/03 08:24:44;;;;;;;3.22;2.40;;;;;;;;;;5004276;28;99050;-75
2022/04/03 08:27:12;;;;;;;4.53;2.80;;;;;;;;;;5000581;28;100269;-75
2022/04/03 08:29:38;;;;;;;4.97;2.88;;;;;;;;;;4998633;28;101795;-76
2022/04/03 08:32:05;;;;;;;13.10;3.53;;;;;;;;;;5002713;28;99870;-76
2022/04/03 08:34:31;;;;;;;4.10;2.97;;;;;;;;;;5003500;28;99466;-76
2022/04/03 08:37:10;;;;;;;5.90;4.63;;;;;;;;;;5003836;28;100270;-76
2022/04/03 08:39:36;;;;;;;7.03;2.67;;;;;;;;;;5004170;28;100106;-76
2022/04/03 08:42:03;;;;;;;13.50;3.13;;;;;;;;;;5003723;28;100370;-76
2022/04/03 08:44:29;;;;;;;2.92;2.72;;;;;;;;;;5002554;28;98943;-76
2022/04/03 08:46:58;;;;;;;3.22;1.77;;;;;;;;;;5004788;27;99737;-76
2022/04/03 08:49:25;;;;;;;4.85;1.73;;;;;;;;;;5003413;28;100250;-76
2022/04/03 08:51:52;;;;;;;3.00;1.73;;;;;;;;;;5003162;28;98991;-76
2022/04/03 08:54:20;;;;;;;3.15;1.58;;;;;;;;;;5003346;28;102023;-76
2022/04/03 08:56:47;;;;;;;2.75;1.55;;;;;;;;;;5000362;28;100254;-76
2022/04/03 08:59:13;;;;;;;1.90;1.50;;;;;;;;;;5001447;28;100487;-75
2022/04/03 09:01:39;;;;;;;2.67;1.50;;;;;;;;;;5005962;28;100156;-76
2022/04/03 09:04:06;;;;;;;2.35;1.80;;;;;;;;;;5001931;28;98979;-77
2022/04/03 09:06:32;;;;;;;4.03;1.27;;;;;;;;;;4999862;28;100084;-76
2022/04/03 09:08:59;;;;;;;1.40;1.20;;;;;;;;;;5000700;28;100258;-76
2022/04/03 09:11:29;;;;;;;2.42;1.63;;;;;;;;;;5003530;27;100080;-76
2022/04/03 09:13:55;;;;;;;2.13;1.60;;;;;;;;;;5000662;28;98639;-77
2022/04/03 09:16:37;;;;;;;1.70;1.30;;;;;;;;;;5003987;28;100766;-75
2022/04/03 09:19:03;;;;;;;1.50;1.40;;;;;;;;;;4999828;28;101543;-75
2022/04/03 09:21:32;;;;;;;5.13;1.70;;;;;;;;;;5004058;28;101475;-75
2022/04/03 09:24:08;;;;;;;3.05;1.30;;;;;;;;;;5007938;28;100008;-75
2022/04/03 09:26:35;;;;;;;1.52;1.42;;;;;;;;;;5003545;28;99021;-75
2022/04/03 09:29:05;;;;;;;3.15;1.63;;;;;;;;;;5003637;28;100839;-75
2022/04/03 09:31:31;;;;;;;6.45;1.52;;;;;;;;;;5007060;28;99123;-75
2022/04/03 09:33:59;;;;;;;2.85;2.33;;;;;;;;;;5007693;28;99127;-75
2022/04/03 09:36:28;;;;;;;2.95;1.70;;;;;;;;;;5008588;28;99593;-75
2022/04/03 09:39:03;;;;;;;8.55;3.10;;;;;;;;;;5007208;28;98551;-75
2022/04/03 09:41:29;;;;;;;2.35;1.48;;;;;;;;;;5003652;27;99297;-75
2022/04/03 09:43:56;;;;;;;2.17;1.98;;;;;;;;;;5006869;28;101723;-76
2022/04/03 09:46:26;;;;;;;2.50;1.35;;;;;;;;;;5011587;28;98549;-77
2022/04/03 09:48:52;;;;;;;4.07;1.67;;;;;;;;;;5006729;28;100171;-77
2022/04/03 09:51:26;;;;;;;1.90;1.60;;;;;;;;;;5007309;28;98638;-77
2022/04/03 09:53:56;;;;;;;2.47;1.63;;;;;;;;;;5006292;28;100412;-77
2022/04/03 09:56:25;;;;;;;2.55;1.83;;;;;;;;;;5006424;28;100270;-76
2022/04/03 09:58:51;;;;;;;2.40;1.52;;;;;;;;;;5005052;28;98681;-79
2022/04/03 10:01:24;;;;;;;2.30;1.80;;;;;;;;;;5006800;28;101148;-77
2022/04/03 10:03:51;;;;;;;4.53;1.92;;;;;;;;;;5005906;28;100199;-76
2022/04/03 10:06:18;;;;;;;4.25;1.70;;;;;;;;;;5006259;28;98569;-76
2022/04/03 10:08:46;;;;;;;3.55;1.70;;;;;;;;;;5009678;28;102603;-76
2022/04/03 10:11:12;;;;;;;2.47;2.00;;;;;;;;;;5006884;28;98966;-78
2022/04/03 10:13:39;;;;;;;4.85;2.22;;;;;;;;;;5003810;28;99912;-75
2022/04/03 10:16:05;;;;;;;3.00;1.50;;;;;;;;;;5007243;28;100606;-76
2022/04/03 10:18:33;;;;;;;3.60;1.50;;;;;;;;;;5008097;28;98601;-76
2022/04/03 10:20:59;;;;;;;1.92;1.70;;;;;;;;;;5009044;27;99186;-76
2022/04/03 10:23:27;;;;;;;2.78;1.88;;;;;;;;;;5006706;28;100238;-76
2022/04/03 10:25:55;;;;;;;5.88;2.17;;;;;;;;;;5008728;28;98308;-76
2022/04/03 10:28:22;;;;;;;3.83;1.75;;;;;;;;;;5007990;28;99291;-76
2022/04/03 10:30:58;;;;;;;2.58;1.80;;;;;;;;;;5010473;28;100401;-76
2022/04/03 10:33:24;;;;;;;1.52;1.42;;;;;;;;;;5007512;28;99719;-76
2022/04/03 10:36:04;;;;;;;3.65;1.90;;;;;;;;;;5007725;28;100410;-76
2022/04/03 10:38:35;;;;;;;1.60;1.50;;;;;;;;;;5006968;28;98520;-76
2022/04/03 10:41:02;;;;;;;2.45;1.55;;;;;;;;;;5007210;28;99912;-76
2022/04/03 10:43:29;;;;;;;1.40;1.30;;;;;;;;;;5007346;28;100183;-76
2022/04/03 10:45:56;;;;;;;2.72;2.08;;;;;;;;;;5005095;28;100564;-76
2022/04/03 10:48:24;;;;;;;1.70;1.13;;;;;;;;;;5007618;28;99709;-76
2022/04/03 10:50:57;;;;;;;2.28;1.20;;;;;;;;;;5012795;28;99544;-76
2022/04/03 10:53:25;;;;;;;1.75;1.42;;;;;;;;;;4996913;28;99691;-76
2022/04/03 10:55:55;;;;;;;1.70;1.13;;;;;;;;;;5010928;28;100585;-76
2022/04/03 10:58:22;;;;;;;1.92;1.73;;;;;;;;;;5010089;28;99367;-76
2022/04/03 11:00:49;;;;;;;3.85;1.27;;;;;;;;;;5010698;28;100661;-77
2022/04/03 11:03:18;;;;;;;2.15;1.05;;;;;;;;;;5010303;28;100270;-77
2022/04/03 11:05:48;;;;;;;1.67;0.98;;;;;;;;;;5010564;28;98634;-77
2022/04/03 11:08:18;;;;;;;2.65;1.00;;;;;;;;;;5010962;28;100348;-77
2022/04/03 11:10:56;;;;;;;4.05;1.05;;;;;;;;;;5010661;28;99534;-76
2022/04/03 11:13:23;;;;;;;1.70;1.00;;;;;;;;;;5013315;28;98551;-77
2022/04/03 11:15:53;;;;;;;1.95;1.20;;;;;;;;;;5009464;28;99577;-77
2022/04/03 11:18:27;;;;;;;0.77;0.77;;;;;;;;;;4995210;28;98620;-77
2022/04/03 11:21:12;;;;;;;5.75;1.05;;;;;;;;;;4993252;28;99794;-77
2022/04/03 11:23:41;;;;;;;0.70;0.70;;;;;;;;;;4998793;28;101324;-76
2022/04/03 11:26:07;;;;;;;1.73;0.88;;;;;;;;;;5003484;28;99954;-76
2022/04/03 11:28:34;;;;;;;1.73;0.77;;;;;;;;;;4997938;28;99947;-77
2022/04/03 11:31:01;;;;;;;0.70;0.70;;;;;;;;;;5008581;28;99306;-75
2022/04/03 11:33:28;;;;;;;1.35;1.25;;;;;;;;;;5008451;28;98541;-77
2022/04/03 11:35:54;;;;;;;2.83;2.22;;;;;;;;;;5010144;28;101235;-75
2022/04/03 11:38:21;;;;;;;2.60;1.25;;;;;;;;;;5007143;28;98617;-75
2022/04/03 11:40:47;;;;;;;2.13;1.10;;;;;;;;;;4996659;28;99536;-75
2022/04/03 11:43:14;;;;;;;1.40;1.10;;;;;;;;;;5008372;28;99675;-75
2022/04/03 11:45:47;;;;;;;2.67;1.10;;;;;;;;;;5001805;28;98618;-75
2022/04/03 11:48:15;;;;;;;2.35;1.30;;;;;;;;;;4991892;28;100529;-75
2022/04/03 11:50:42;;;;;;;3.45;1.75;;;;;;;;;;4993002;28;99795;-74
2022/04/03 11:53:11;;;;;;;1.20;1.10;;;;;;;;;;5005335;28;98525;-75
2022/04/03 11:55:38;;;;;;;2.83;1.52;;;;;;;;;;5009497;28;100057;-75
2022/04/03 11:58:05;;;;;;;2.10;1.35;;;;;;;;;;5013623;28;99741;-75
2022/04/03 12:00:32;;;;;;;4.80;1.27;;;;;;;;;;5009223;28;99033;-75
2022/04/03 12:03:07;;;;;;;5.10;1.40;;;;;;;;;;5008750;28;100407;-75
2022/04/03 12:05:33;;;;;;;6.32;1.90;;;;;;;;;;5010407;28;97731;-75
2022/04/03 12:08:01;;;;;;;4.75;4.25;;;;;;;;;;5010489;28;98583;-75
2022/04/03 12:10:28;;;;;;;4.10;1.25;;;;;;;;;;5008831;28;100398;-74
2022/04/03 12:12:57;;;;;;;3.78;1.60;;;;;;;;;;5009800;28;99328;-75
2022/04/03 12:15:26;;;;;;;1.55;1.33;;;;;;;;;;5007187;28;100768;-73
2022/04/03 12:18:13;;;;;;;1.85;1.75;;;;;;;;;;5005980;28;101029;-76
2022/04/03 12:20:39;;;;;;;1.70;1.60;;;;;;;;;;4993979;28;98601;-73
2022/04/03 12:23:06;;;;;;;3.72;1.38;;;;;;;;;;4989093;28;100263;-73
2022/04/03 12:25:34;;;;;;;4.07;1.48;;;;;;;;;;4989762;28;98652;-76
2022/04/03 12:28:00;;;;;;;2.20;1.50;;;;;;;;;;4990474;28;99937;-75
2022/04/03 12:30:29;;;;;;;1.75;1.63;;;;;;;;;;4989024;28;99506;-76
2022/04/03 12:32:56;;;;;;;1.88;1.77;;;;;;;;;;4989932;28;98997;-73
2022/04/03 12:35:23;;;;;;;3.95;1.85;;;;;;;;;;4989752;28;99957;-74
2022/04/03 12:37:50;;;;;;;2.53;1.60;;;;;;;;;;4988213;28;100297;-74
2022/04/03 12:40:17;;;;;;;1.63;1.23;;;;;;;;;;4989633;28;98874;-74
2022/04/03 12:42:44;;;;;;;3.50;2.20;;;;;;;;;;4992762;28;99599;-74
2022/04/03 12:45:15;;;;;;;2.95;1.10;;;;;;;;;;4989310;28;99093;-76
2022/04/03 12:47:46;;;;;;;2.25;1.77;;;;;;;;;;4989721;28;100495;-76
2022/04/03 12:50:17;;;;;;;3.20;1.80;;;;;;;;;;4989643;28;99630;-76
2022/04/03 12:52:49;;;;;;;1.35;1.25;;;;;;;;;;4989664;28;99066;-76
2022/04/03 12:55:24;;;;;;;1.50;1.50;;;;;;;;;;4989823;28;99997;-74
2022/04/03 13:00:44;;;;;;;2.28;1.45;;;;;;;;;;4989595;28;98578;-74
2022/04/03 13:03:21;;;;;;;4.32;1.73;;;;;;;;;;4991470;28;99830;-74
2022/04/03 13:05:48;;;;;;;1.58;1.48;;;;;;;;;;4988792;28;99599;-74
2022/04/03 13:08:15;;;;;;;2.30;2.10;;;;;;;;;;4988612;28;99796;-74
2022/04/03 13:10:54;;;;;;;1.85;1.25;;;;;;;;;;4989427;28;99448;-74
2022/04/03 13:13:28;;;;;;;1.30;0.98;;;;;;;;;;4987976;28;98948;-74
2022/04/03 13:15:56;;;;;;;1.30;0.90;;;;;;;;;;4989276;28;99428;-74
2022/04/03 13:18:23;;;;;;;0.70;0.70;;;;;;;;;;4988221;28;100277;-74
2022/04/03 13:20:49;;;;;;;0.63;0.60;;;;;;;;;;4992570;28;98353;-74
2022/04/03 13:23:16;;;;;;;0.70;0.70;;;;;;;;;;5008669;28;99629;-74
2022/04/03 13:25:44;;;;;;;0.70;0.70;;;;;;;;;;5011421;28;100116;-74
2022/04/03 13:28:10;;;;;;;0.77;0.77;;;;;;;;;;5008353;28;99869;-74
2022/04/03 13:30:37;;;;;;;4.43;0.70;;;;;;;;;;5008442;28;100895;-74
2022/04/03 13:33:03;;;;;;;0.98;0.70;;;;;;;;;;5008445;28;98623;-74
2022/04/03 13:35:30;;;;;;;0.70;0.68;;;;;;;;;;5008618;28;99899;-74
2022/04/03 13:37:56;;;;;;;0.90;0.90;;;;;;;;;;5007413;28;100232;-74
2022/04/03 13:40:22;;;;;;;2.08;0.65;;;;;;;;;;5008079;28;98581;-74
2022/04/03 13:42:49;;;;;;;0.60;0.60;;;;;;;;;;5009161;28;100452;-74
2022/04/03 13:45:15;;;;;;;0.95;0.95;;;;;;;;;;5008634;28;99630;-74
2022/04/03 13:47:48;;;;;;;1.13;1.13;;;;;;;;;;5011521;28;98529;-74
2022/04/03 13:50:17;;;;;;;0.77;0.70;;;;;;;;;;5008115;28;100436;-74
2022/04/03 13:52:43;;;;;;;1.02;0.80;;;;;;;;;;5008368;28;99316;-75
2022/04/03 13:55:10;;;;;;;1.77;0.80;;;;;;;;;;5007783;28;101174;-75
2022/04/03 13:57:36;;;;;;;2.05;0.90;;;;;;;;;;5007987;28;100333;-74
2022/04/03 14:00:03;;;;;;;1.10;1.10;;;;;;;;;;5008360;28;98545;-74
2022/04/03 14:02:37;;;;;;;2.67;1.20;;;;;;;;;;5005764;28;98594;-74
2022/04/03 14:05:03;;;;;;;2.53;1.00;;;;;;;;;;5008125;28;100649;-74
2022/04/03 14:07:30;;;;;;;1.38;0.82;;;;;;;;;;5008430;28;98591;-74
2022/04/03 14:09:56;;;;;;;0.70;0.70;;;;;;;;;;5010851;28;100465;-74
2022/04/03 14:12:23;;;;;;;0.90;0.90;;;;;;;;;;5007974;28;98560;-74
2022/04/03 14:14:49;;;;;;;1.92;0.70;;;;;;;;;;5008005;28;100012;-74
2022/04/03 14:17:15;;;;;;;1.98;1.20;;;;;;;;;;5007174;28;101015;-74
2022/04/03 14:19:42;;;;;;;0.70;0.70;;;;;;;;;;5008224;28;98561;-74
2022/04/03 14:22:08;;;;;;;1.38;0.93;;;;;;;;;;5007637;28;100137;-74
2022/04/03 14:24:36;;;;;;;1.02;0.90;;;;;;;;;;5008484;28;100268;-74
2022/04/03 14:27:02;;;;;;;1.70;0.98;;;;;;;;;;5011630;28;98659;-74
2022/04/03 14:29:29;;;;;;;1.00;0.95;;;;;;;;;;5010726;28;100207;-74
2022/04/03 14:31:56;;;;;;;0.73;0.73;;;;;;;;;;5014691;28;100575;-74
2022/04/03 14:34:22;;;;;;;2.40;0.90;;;;;;;;;;5011807;28;99892;-74
2022/04/03 14:36:49;;;;;;;1.52;1.10;;;;;;;;;;5011113;28;100116;-74